Time;durP1;ratioP1;P1;durP2;ratioP2;P2;SDS_P1;SDS_P2;PMS_P1;PMS_P2;Temp;Humidity;BMP_temperature;BMP_pressure;BME280_temperature;BME280_humidity;BME280_pressure;Samples;Min_cycle;Max_cycle;Signal;HPM_P1;HPM_P2
2023/03/07 00:00:11;;;;;;;21.07;9.50;;;;;;;7.50;73.17;94390.13;4990266;28;20241;-72
2023/03/07 00:02:37;;;;;;;23.03;10.90;;;;;;;7.40;74.07;94392.31;4984813;28;20226;-72
2023/03/07 00:05:02;;;;;;;22.80;10.17;;;;;;;7.27;74.44;94387.03;5006540;28;20241;-71
2023/03/07 00:07:28;;;;;;;20.33;10.10;;;;;;;6.99;77.18;94375.88;5006607;28;20244;-71
2023/03/07 00:09:54;;;;;;;23.83;10.57;;;;;;;7.33;75.44;94386.28;5009143;28;20635;-72
2023/03/07 00:12:21;;;;;;;23.20;9.40;;;;;;;7.28;74.90;94370.44;4993776;28;20229;-72
2023/03/07 00:14:46;;;;;;;18.47;9.17;;;;;;;7.32;75.32;94369.84;4986051;28;20234;-72
2023/03/07 00:17:11;;;;;;;20.90;9.60;;;;;;;7.50;74.13;94379.72;5006899;28;20834;-72
2023/03/07 00:19:37;;;;;;;20.53;9.47;;;;;;;7.51;73.88;94377.94;4975624;28;20750;-71
2023/03/07 00:22:03;;;;;;;22.40;9.60;;;;;;;7.55;73.94;94364.31;5005891;28;20233;-71
2023/03/07 00:24:28;;;;;;;26.17;10.90;;;;;;;7.52;73.83;94366.53;4989341;28;20246;-71
2023/03/07 00:26:54;;;;;;;20.90;10.10;;;;;;;7.44;74.62;94367.50;4990850;28;20230;-70
2023/03/07 00:29:19;;;;;;;22.20;11.10;;;;;;;7.55;74.26;94376.56;5005949;28;20234;-69
2023/03/07 00:31:45;;;;;;;23.63;10.87;;;;;;;7.58;73.12;94366.56;4991795;28;20301;-71
2023/03/07 00:34:10;;;;;;;27.37;11.97;;;;;;;7.50;73.03;94351.09;4986555;28;20234;-70
2023/03/07 00:36:35;;;;;;;23.43;11.33;;;;;;;7.42;73.01;94346.06;4986075;28;20230;-71
2023/03/07 00:39:01;;;;;;;22.83;11.13;;;;;;;7.42;72.96;94357.28;4973311;28;20237;-72
2023/03/07 00:41:27;;;;;;;25.20;11.37;;;;;;;7.45;72.53;94353.50;4990139;28;20352;-71
2023/03/07 00:43:53;;;;;;;26.10;10.67;;;;;;;7.42;73.54;94352.09;4991715;28;20761;-70
2023/03/07 00:46:19;;;;;;;23.43;10.40;;;;;;;7.42;73.24;94364.28;4985167;28;20214;-71
2023/03/07 00:48:44;;;;;;;21.60;10.50;;;;;;;7.33;72.25;94360.25;4973705;28;20234;-71
2023/03/07 00:51:11;;;;;;;22.77;10.77;;;;;;;7.38;72.17;94347.44;4990614;28;20229;-72
2023/03/07 00:53:37;;;;;;;22.60;10.53;;;;;;;7.47;71.64;94354.09;4973621;28;20313;-70
2023/03/07 00:56:04;;;;;;;25.93;11.40;;;;;;;7.25;75.08;94350.78;4987760;28;20802;-72
2023/03/07 00:58:31;;;;;;;24.47;11.10;;;;;;;7.11;76.97;94343.13;4989290;28;20233;-72
2023/03/07 01:00:57;;;;;;;24.17;10.93;;;;;;;7.12;75.39;94340.31;4972348;28;20261;-71
2023/03/07 01:03:23;;;;;;;27.73;11.23;;;;;;;7.33;74.13;94355.81;4976759;28;20225;-70
2023/03/07 01:05:48;;;;;;;23.03;10.47;;;;;;;7.35;75.10;94350.44;5007373;28;20324;-70
2023/03/07 01:08:15;;;;;;;26.90;11.63;;;;;;;7.34;74.74;94343.63;4988677;28;20225;-72
2023/03/07 01:10:40;;;;;;;25.47;10.80;;;;;;;7.34;74.40;94354.03;4982428;28;20230;-70
2023/03/07 01:13:06;;;;;;;23.23;10.60;;;;;;;7.48;72.69;94366.91;4991145;28;20237;-71
2023/03/07 01:15:31;;;;;;;23.63;9.77;;;;;;;7.48;72.70;94356.50;4992605;28;20230;-70
2023/03/07 01:17:57;;;;;;;21.73;10.23;;;;;;;7.39;74.57;94341.25;5007474;28;20244;-71
2023/03/07 01:20:22;;;;;;;20.77;10.00;;;;;;;7.27;74.37;94332.38;5007663;28;20226;-70
2023/03/07 01:22:48;;;;;;;20.30;10.17;;;;;;;7.17;73.30;94319.72;4990865;28;20360;-71
2023/03/07 01:25:13;;;;;;;21.03;9.47;;;;;;;7.44;72.06;94313.63;4985978;28;20307;-71
2023/03/07 01:27:39;;;;;;;22.07;9.57;;;;;;;7.45;73.80;94306.63;5005401;28;20234;-72
2023/03/07 01:30:06;;;;;;;21.63;9.63;;;;;;;7.28;75.39;94294.97;5005162;28;20226;-71
2023/03/07 01:32:31;;;;;;;21.60;9.90;;;;;;;7.43;74.69;94300.78;4969296;28;20229;-71
2023/03/07 01:34:57;;;;;;;20.90;10.53;;;;;;;7.38;72.75;94298.78;4989958;28;20234;-72
2023/03/07 01:37:22;;;;;;;23.63;9.50;;;;;;;7.52;72.82;94314.47;4992305;28;20226;-72
2023/03/07 01:39:52;;;;;;;20.00;9.37;;;;;;;7.60;72.32;94316.88;5009386;28;20222;-71
2023/03/07 01:42:18;;;;;;;17.27;8.60;;;;;;;7.63;71.53;94314.69;4990497;28;20241;-72
2023/03/07 01:45:07;;;;;;;21.33;9.33;;;;;;;7.54;72.70;94308.06;4993586;28;20222;-72
2023/03/07 01:47:33;;;;;;;22.63;9.40;;;;;;;7.67;72.98;94330.72;5011861;28;20226;-72
2023/03/07 01:50:00;;;;;;;19.53;9.00;;;;;;;7.57;73.39;94318.06;4975588;28;20226;-72
2023/03/07 01:52:38;;;;;;;17.40;8.77;;;;;;;7.55;73.61;94314.06;4976664;28;20442;-71
2023/03/07 01:55:08;;;;;;;19.83;8.63;;;;;;;7.43;73.98;94321.63;4994014;28;20244;-72
2023/03/07 01:57:35;;;;;;;17.33;8.60;;;;;;;7.52;71.36;94327.47;4988545;28;20291;-71
2023/03/07 02:00:05;;;;;;;19.93;8.83;;;;;;;7.52;71.64;94323.09;4989734;28;20799;-72
2023/03/07 02:02:31;;;;;;;17.33;8.73;;;;;;;7.39;74.16;94316.00;4993822;28;20218;-71
2023/03/07 02:05:10;;;;;;;18.33;8.60;;;;;;;7.34;72.57;94313.19;4992182;28;20233;-72
2023/03/07 02:07:47;;;;;;;20.37;9.17;;;;;;;7.40;73.50;94309.78;5008484;28;20726;-72
2023/03/07 02:10:13;;;;;;;18.40;8.93;;;;;;;7.48;71.83;94308.81;4994377;28;20229;-72
2023/03/07 02:12:39;;;;;;;17.53;8.90;;;;;;;7.64;72.10;94318.09;4992669;28;20244;-72
2023/03/07 02:15:06;;;;;;;19.37;9.30;;;;;;;7.62;71.65;94314.91;4992082;28;20234;-72
2023/03/07 02:17:32;;;;;;;19.33;9.40;;;;;;;7.53;72.10;94311.66;4992212;28;20233;-71
2023/03/07 02:20:34;;;;;;;17.57;8.87;;;;;;;7.39;73.82;94297.00;4976424;28;20234;-72
2023/03/07 02:23:00;;;;;;;20.60;8.80;;;;;;;7.42;73.06;94297.41;5025971;28;20244;-72
2023/03/07 02:25:42;;;;;;;16.93;8.77;;;;;;;7.54;73.12;94302.84;4991725;28;20234;-71
2023/03/07 02:28:09;;;;;;;20.80;8.73;;;;;;;7.48;73.38;94308.81;5004300;28;20238;-70
2023/03/07 02:30:38;;;;;;;16.67;8.73;;;;;;;7.56;72.17;94298.25;4983201;28;20785;-72
2023/03/07 02:33:03;;;;;;;20.90;8.53;;;;;;;7.42;73.46;94304.41;4985078;28;20236;-72
2023/03/07 02:35:29;;;;;;;18.40;8.50;;;;;;;7.36;73.60;94305.19;4988549;28;20231;-71
2023/03/07 02:37:56;;;;;;;19.70;8.60;;;;;;;7.45;73.82;94304.03;4981894;28;20239;-71
2023/03/07 02:40:22;;;;;;;20.20;8.90;;;;;;;7.58;73.00;94304.06;4988791;28;20254;-72
2023/03/07 02:42:48;;;;;;;18.60;8.30;;;;;;;7.50;73.54;94313.84;4982309;28;20350;-72
2023/03/07 02:45:15;;;;;;;18.10;8.93;;;;;;;7.48;73.78;94304.44;4985676;28;20233;-72
2023/03/07 02:47:42;;;;;;;19.77;9.00;;;;;;;7.24;76.43;94297.13;5004903;28;20235;-72
2023/03/07 02:50:08;;;;;;;19.30;9.20;;;;;;;7.36;76.09;94310.38;5004407;28;20238;-71
2023/03/07 02:52:33;;;;;;;18.57;8.67;;;;;;;7.33;75.04;94318.59;4986601;28;20297;-71
2023/03/07 02:54:58;;;;;;;16.23;8.50;;;;;;;7.36;75.25;94310.38;4972284;28;20223;-71
2023/03/07 02:57:24;;;;;;;18.17;8.60;;;;;;;7.46;74.55;94310.81;4988387;28;20675;-71
2023/03/07 02:59:49;;;;;;;20.77;9.20;;;;;;;7.55;74.11;94311.47;4988679;28;20731;-71
2023/03/07 03:02:15;;;;;;;18.13;8.40;;;;;;;7.51;73.61;94307.63;4985698;28;20234;-71
2023/03/07 03:04:40;;;;;;;16.33;8.53;;;;;;;7.45;74.10;94304.03;4981480;28;20269;-71
2023/03/07 03:07:06;;;;;;;17.10;8.73;;;;;;;7.45;74.11;94311.84;4987626;28;20238;-71
2023/03/07 03:09:31;;;;;;;17.27;8.10;;;;;;;7.53;73.73;94314.25;4990732;28;20250;-71
2023/03/07 03:11:57;;;;;;;18.93;8.50;;;;;;;7.38;74.87;94316.19;4967377;28;20253;-71
2023/03/07 03:14:22;;;;;;;16.93;8.47;;;;;;;7.28;74.20;94307.97;4987377;28;20241;-70
2023/03/07 03:16:48;;;;;;;17.90;8.43;;;;;;;7.35;74.53;94309.59;4971901;28;20235;-71
2023/03/07 03:19:14;;;;;;;19.30;8.70;;;;;;;7.52;75.27;94310.06;4987714;28;20224;-70
2023/03/07 03:21:39;;;;;;;19.40;8.77;;;;;;;7.41;74.59;94300.19;4985675;28;20230;-72
2023/03/07 03:24:05;;;;;;;18.37;8.70;;;;;;;7.50;74.03;94296.41;5002648;28;20239;-71
2023/03/07 03:26:31;;;;;;;17.87;8.90;;;;;;;7.26;75.34;94297.72;4965551;28;20233;-72
2023/03/07 03:28:57;;;;;;;19.90;8.70;;;;;;;7.31;75.44;94294.53;5004480;28;20234;-73
2023/03/07 03:31:23;;;;;;;17.90;8.63;;;;;;;7.20;76.29;94289.91;5003501;28;20325;-70
2023/03/07 03:33:51;;;;;;;19.17;8.60;;;;;;;7.27;75.44;94294.16;4972152;28;20344;-70
2023/03/07 03:36:16;;;;;;;16.37;8.33;;;;;;;7.25;75.54;94300.53;5015709;28;20708;-70
2023/03/07 03:38:42;;;;;;;17.07;8.67;;;;;;;7.25;75.67;94306.56;4988172;28;20227;-72
2023/03/07 03:41:10;;;;;;;17.47;8.57;;;;;;;7.18;76.73;94310.94;4987950;28;20241;-71
2023/03/07 03:43:36;;;;;;;15.67;8.30;;;;;;;7.17;76.35;94318.91;4980182;28;20235;-72
2023/03/07 03:46:02;;;;;;;17.43;8.50;;;;;;;7.18;76.29;94325.72;4963383;28;20818;-71
2023/03/07 03:48:27;;;;;;;21.37;8.93;;;;;;;7.31;75.91;94320.56;4972768;28;20243;-72
2023/03/07 03:51:04;;;;;;;20.37;8.60;;;;;;;7.32;74.59;94309.97;4983730;28;20254;-72
2023/03/07 03:53:31;;;;;;;19.00;9.10;;;;;;;7.34;75.67;94322.78;4985943;28;20237;-72
2023/03/07 03:56:01;;;;;;;19.70;8.20;;;;;;;7.28;76.14;94323.59;4987890;28;20230;-72
2023/03/07 03:58:26;;;;;;;18.93;8.93;;;;;;;7.41;75.48;94316.63;5002475;28;20551;-72
2023/03/07 04:00:52;;;;;;;19.87;8.80;;;;;;;7.47;75.37;94315.06;5003878;28;20249;-72
2023/03/07 04:03:17;;;;;;;20.40;8.90;;;;;;;7.28;76.44;94313.19;4999505;28;20241;-72
2023/03/07 04:05:42;;;;;;;20.60;9.30;;;;;;;7.34;75.74;94314.97;4987162;28;20716;-72
2023/03/07 04:08:09;;;;;;;18.50;8.67;;;;;;;7.19;76.99;94309.91;4986196;28;20229;-72
2023/03/07 04:10:34;;;;;;;17.80;8.47;;;;;;;7.35;77.53;94319.22;4971555;28;20223;-72
2023/03/07 04:13:00;;;;;;;22.30;9.93;;;;;;;7.34;77.03;94320.19;4986164;28;20689;-73
2023/03/07 04:15:25;;;;;;;21.23;9.67;;;;;;;7.18;79.30;94317.94;4966120;28;20296;-72
2023/03/07 04:17:51;;;;;;;20.43;9.53;;;;;;;7.07;80.11;94302.88;4986698;28;20222;-72
2023/03/07 04:20:17;;;;;;;19.70;8.67;;;;;;;7.12;78.91;94313.47;4987193;28;20242;-72
2023/03/07 04:22:43;;;;;;;18.17;8.87;;;;;;;7.12;79.97;94310.88;5003949;28;20297;-72
2023/03/07 04:25:09;;;;;;;18.57;8.87;;;;;;;7.22;77.77;94319.94;4982264;28;20234;-71
2023/03/07 04:27:34;;;;;;;18.50;8.73;;;;;;;7.17;77.38;94321.50;5003123;28;20242;-72
2023/03/07 04:30:00;;;;;;;20.50;9.80;;;;;;;7.23;76.45;94329.38;4986671;28;20297;-72
2023/03/07 04:32:25;;;;;;;22.00;10.20;;;;;;;7.20;76.33;94331.53;4982012;28;20250;-72
2023/03/07 04:34:51;;;;;;;25.20;10.30;;;;;;;7.33;75.48;94335.00;5003698;28;20262;-72
2023/03/07 04:37:16;;;;;;;23.27;10.70;;;;;;;7.38;74.69;94329.22;4985881;28;20241;-72
2023/03/07 04:39:42;;;;;;;20.93;10.13;;;;;;;7.41;74.77;94334.03;4986845;28;20726;-71
2023/03/07 04:42:07;;;;;;;21.33;10.43;;;;;;;7.47;73.88;94334.06;5001935;28;20243;-72
2023/03/07 04:44:33;;;;;;;22.13;9.87;;;;;;;7.34;74.91;94343.63;4984547;28;20231;-72
2023/03/07 04:46:58;;;;;;;21.53;10.47;;;;;;;7.36;75.79;94339.00;5002027;28;20233;-73
2023/03/07 04:49:23;;;;;;;25.40;11.10;;;;;;;7.29;75.82;94336.41;4970507;28;20227;-72
2023/03/07 04:51:49;;;;;;;23.13;10.50;;;;;;;7.16;77.05;94345.94;4986549;28;20239;-72
2023/03/07 04:54:14;;;;;;;23.70;11.13;;;;;;;7.17;77.68;94353.53;4985278;28;20678;-72
2023/03/07 04:56:40;;;;;;;22.60;10.60;;;;;;;7.16;78.66;94341.56;4986220;28;20267;-71
2023/03/07 04:59:06;;;;;;;23.17;10.47;;;;;;;7.38;77.37;94342.22;4986163;28;20838;-72
2023/03/07 05:01:31;;;;;;;25.00;11.10;;;;;;;7.46;75.73;94352.47;4968848;28;20253;-72
2023/03/07 05:03:57;;;;;;;26.00;11.07;;;;;;;7.28;77.31;94345.19;4986855;28;20272;-72
2023/03/07 05:06:23;;;;;;;24.90;11.27;;;;;;;7.18;78.65;94336.94;5003624;28;20223;-72
2023/03/07 05:08:49;;;;;;;24.50;11.47;;;;;;;7.20;78.21;94334.94;5002024;28;20238;-72
2023/03/07 05:11:14;;;;;;;21.47;10.63;;;;;;;7.15;78.42;94339.94;4999531;28;20227;-72
2023/03/07 05:13:40;;;;;;;20.90;11.17;;;;;;;7.21;77.96;94344.34;5002581;28;20230;-72
2023/03/07 05:16:05;;;;;;;23.97;11.00;;;;;;;7.28;78.02;94345.19;4985725;28;20771;-72
2023/03/07 05:18:31;;;;;;;23.93;11.00;;;;;;;7.43;76.68;94350.25;4969817;28;20235;-72
2023/03/07 05:20:56;;;;;;;28.60;11.63;;;;;;;7.41;77.32;94349.66;4986407;28;20284;-72
2023/03/07 05:23:22;;;;;;;29.43;11.40;;;;;;;7.47;76.91;94344.47;4967439;28;20230;-72
2023/03/07 05:25:47;;;;;;;30.07;12.00;;;;;;;7.59;76.38;94344.72;5002391;28;20254;-72
2023/03/07 05:28:13;;;;;;;24.53;11.60;;;;;;;7.65;76.81;94350.94;5000728;28;20249;-73
2023/03/07 05:30:39;;;;;;;26.60;11.73;;;;;;;7.63;77.40;94358.97;4966805;28;20274;-73
2023/03/07 05:33:04;;;;;;;25.73;11.80;;;;;;;7.58;77.20;94353.53;4979050;28;20258;-72
2023/03/07 05:35:29;;;;;;;26.00;11.87;;;;;;;7.54;77.73;94356.72;5002119;28;20254;-72
2023/03/07 05:37:55;;;;;;;26.67;12.10;;;;;;;7.55;77.16;94360.94;5003819;28;21096;-72
2023/03/07 05:40:20;;;;;;;29.07;12.07;;;;;;;7.60;77.40;94354.13;4982029;28;20226;-72
2023/03/07 05:42:46;;;;;;;26.53;11.27;;;;;;;7.54;76.81;94356.72;4986047;28;20238;-72
2023/03/07 05:45:11;;;;;;;29.03;11.50;;;;;;;7.40;77.40;94359.25;4968633;28;20317;-72
2023/03/07 05:47:37;;;;;;;26.47;11.50;;;;;;;7.51;77.75;94360.50;4968971;28;20238;-72
2023/03/07 05:50:04;;;;;;;29.57;11.80;;;;;;;7.57;78.11;94369.34;4983311;28;20239;-74
2023/03/07 05:52:30;;;;;;;27.37;12.17;;;;;;;7.68;77.79;94374.81;4980024;28;20259;-73
2023/03/07 05:54:55;;;;;;;24.67;11.70;;;;;;;7.71;76.45;94371.00;4982884;28;20378;-73
2023/03/07 05:57:21;;;;;;;30.07;11.80;;;;;;;7.80;77.76;94373.25;5015886;28;20966;-73
2023/03/07 05:59:47;;;;;;;29.73;11.40;;;;;;;7.73;77.12;94371.63;4980971;28;20609;-72
2023/03/07 06:02:13;;;;;;;26.83;11.47;;;;;;;7.70;76.86;94377.19;4982247;28;20266;-72
2023/03/07 06:04:38;;;;;;;24.80;11.50;;;;;;;7.79;77.08;94366.41;4985507;28;20233;-72
2023/03/07 06:07:04;;;;;;;25.77;11.63;;;;;;;7.89;77.34;94377.28;5000613;28;20231;-72
2023/03/07 06:09:29;;;;;;;24.60;10.93;;;;;;;7.94;76.44;94381.91;4982326;28;20239;-73
2023/03/07 06:11:55;;;;;;;24.17;10.93;;;;;;;8.03;76.53;94383.31;4986582;28;20239;-73
2023/03/07 06:14:20;;;;;;;27.70;11.27;;;;;;;8.01;75.89;94373.09;4967828;28;20617;-72
2023/03/07 06:16:46;;;;;;;26.80;11.50;;;;;;;8.10;76.01;94381.53;5002808;28;20235;-72
2023/03/07 06:19:11;;;;;;;29.50;11.30;;;;;;;8.17;75.15;94376.34;4984193;28;20235;-73
2023/03/07 06:21:37;;;;;;;29.67;11.47;;;;;;;8.36;75.12;94373.00;4982598;28;20222;-73
2023/03/07 06:24:03;;;;;;;24.33;11.37;;;;;;;8.37;73.67;94371.97;5006875;28;20321;-72
2023/03/07 06:26:28;;;;;;;27.77;11.80;;;;;;;8.32;74.34;94366.56;4983631;28;20230;-72
2023/03/07 06:28:54;;;;;;;27.83;12.27;;;;;;;8.43;75.85;94369.38;4981515;28;20249;-72
2023/03/07 06:31:19;;;;;;;24.23;10.73;;;;;;;8.50;73.38;94377.22;4988212;28;20712;-72
2023/03/07 06:33:46;;;;;;;21.23;9.77;;;;;;;8.73;73.28;94378.41;4971878;28;20235;-72
2023/03/07 06:36:13;;;;;;;23.23;10.57;;;;;;;8.82;72.06;94377.22;4962374;28;20226;-73
2023/03/07 06:39:07;;;;;;;23.50;10.37;;;;;;;9.02;71.65;94379.81;4967633;28;20264;-73
2023/03/07 06:41:33;;;;;;;20.87;10.40;;;;;;;9.42;69.50;94385.72;4983240;28;20711;-72
2023/03/07 06:43:58;;;;;;;23.03;10.00;;;;;;;9.40;70.07;94385.13;5013214;28;20329;-73
2023/03/07 06:46:24;;;;;;;25.33;10.97;;;;;;;9.50;69.82;94388.91;4980883;28;20242;-73
2023/03/07 06:48:50;;;;;;;25.13;10.93;;;;;;;9.30;69.83;94385.56;4995812;28;20239;-73
2023/03/07 06:51:19;;;;;;;23.57;10.70;;;;;;;9.47;70.70;94393.75;4997003;28;20235;-72
2023/03/07 06:53:46;;;;;;;29.50;13.23;;;;;;;9.58;70.24;94400.94;4979094;28;20235;-72
2023/03/07 06:56:11;;;;;;;32.03;13.43;;;;;;;9.57;69.43;94396.75;4980462;28;20226;-73
2023/03/07 06:58:37;;;;;;;28.23;11.30;;;;;;;9.50;68.90;94406.41;4988395;28;20333;-72
2023/03/07 07:01:02;;;;;;;22.17;10.30;;;;;;;9.37;69.32;94409.03;4990339;28;20239;-72
2023/03/07 07:03:28;;;;;;;20.37;10.37;;;;;;;9.42;69.10;94398.78;4971802;28;20226;-71
2023/03/07 07:05:53;;;;;;;19.80;9.90;;;;;;;9.63;68.57;94389.88;5004645;28;20589;-72
2023/03/07 07:08:19;;;;;;;21.87;10.10;;;;;;;10.11;66.83;94391.91;4980960;28;20226;-73
2023/03/07 07:10:44;;;;;;;20.73;10.00;;;;;;;10.31;66.24;94399.66;5004575;28;20242;-73
2023/03/07 07:13:11;;;;;;;25.27;10.30;;;;;;;10.23;67.24;94396.47;4986313;28;20923;-71
2023/03/07 07:15:40;;;;;;;22.63;9.90;;;;;;;10.33;66.90;94394.22;4972636;28;20231;-73
2023/03/07 07:18:06;;;;;;;23.53;10.27;;;;;;;10.38;65.88;94389.94;4984763;28;20790;-72
2023/03/07 07:20:31;;;;;;;24.43;10.90;;;;;;;10.22;67.36;94390.47;5005858;28;20225;-72
2023/03/07 07:22:56;;;;;;;27.60;12.23;;;;;;;10.59;66.74;94397.47;5005769;28;20231;-72
2023/03/07 07:25:22;;;;;;;26.13;10.80;;;;;;;10.74;66.23;94403.19;5002986;28;21034;-72
2023/03/07 07:27:48;;;;;;;27.53;11.10;;;;;;;10.66;65.89;94397.41;4982778;28;20241;-72
2023/03/07 07:30:13;;;;;;;20.63;9.77;;;;;;;10.52;65.64;94399.31;5005531;28;20223;-72
2023/03/07 07:32:39;;;;;;;24.47;11.43;;;;;;;10.37;65.60;94396.19;5000399;28;20326;-71
2023/03/07 07:35:05;;;;;;;45.03;23.87;;;;;;;10.25;64.77;94397.06;4968926;28;20326;-72
2023/03/07 07:37:30;;;;;;;50.00;27.60;;;;;;;10.43;65.26;94397.97;4970071;28;20723;-73
2023/03/07 07:39:56;;;;;;;32.90;19.83;;;;;;;10.77;65.03;94405.38;5003405;28;20235;-72
2023/03/07 07:42:21;;;;;;;49.67;28.27;;;;;;;10.77;63.51;94401.97;5002298;28;20227;-72
2023/03/07 07:44:47;;;;;;;50.13;28.37;;;;;;;10.99;63.46;94403.19;4969825;28;20329;-72
2023/03/07 07:47:13;;;;;;;27.93;15.20;;;;;;;10.65;62.61;94399.22;4983957;28;20262;-71
2023/03/07 07:49:38;;;;;;;21.50;11.20;;;;;;;10.58;63.08;94408.91;4983180;28;20623;-72
2023/03/07 07:52:04;;;;;;;21.10;10.00;;;;;;;10.84;63.29;94403.50;5002021;28;20270;-72
2023/03/07 07:54:29;;;;;;;18.47;9.13;;;;;;;11.01;63.13;94408.22;5001278;28;20787;-72
2023/03/07 07:56:56;;;;;;;18.93;10.90;;;;;;;10.93;62.42;94411.91;4981010;28;20235;-71
2023/03/07 07:59:22;;;;;;;18.73;9.23;;;;;;;10.81;63.50;94411.78;4982147;28;20249;-71
2023/03/07 08:01:47;;;;;;;19.77;9.13;;;;;;;10.75;63.80;94417.88;5002328;28;21062;-71
2023/03/07 08:04:19;;;;;;;16.10;8.70;;;;;;;10.87;64.07;94414.56;4989403;28;20614;-70
2023/03/07 08:06:45;;;;;;;19.63;10.20;;;;;;;10.84;63.94;94413.97;4985761;28;20289;-72
2023/03/07 08:09:11;;;;;;;19.77;10.20;;;;;;;10.95;64.39;94417.72;5001015;28;20726;-71
2023/03/07 08:11:37;;;;;;;19.37;9.30;;;;;;;11.06;63.58;94410.97;5004132;28;20231;-71
2023/03/07 08:14:02;;;;;;;24.27;12.10;;;;;;;11.27;62.75;94415.84;5002208;28;20285;-71
2023/03/07 08:16:28;;;;;;;23.63;11.40;;;;;;;11.41;61.92;94412.06;5004005;28;20250;-72
2023/03/07 08:18:57;;;;;;;27.63;13.43;;;;;;;11.35;61.67;94415.53;5004402;28;20890;-71
2023/03/07 08:21:23;;;;;;;21.53;9.70;;;;;;;11.05;63.01;94417.25;4962037;28;20711;-71
2023/03/07 08:23:48;;;;;;;21.93;9.27;;;;;;;11.30;62.92;94407.53;4986091;28;20247;-71
2023/03/07 08:26:14;;;;;;;22.57;10.70;;;;;;;11.34;62.06;94408.72;4959261;28;20812;-71
2023/03/07 08:28:40;;;;;;;39.67;18.33;;;;;;;11.29;61.42;94409.38;4963587;28;20247;-70
2023/03/07 08:31:10;;;;;;;19.20;8.97;;;;;;;11.18;61.19;94404.00;4966646;28;20325;-70
2023/03/07 08:33:35;;;;;;;21.47;8.43;;;;;;;11.25;60.06;94405.56;4984302;28;20255;-70
2023/03/07 08:36:01;;;;;;;20.17;8.80;;;;;;;11.22;60.13;94402.59;4966794;28;20231;-70
2023/03/07 08:38:26;;;;;;;19.13;8.50;;;;;;;11.56;59.17;94409.88;4984387;28;20620;-70
2023/03/07 08:40:52;;;;;;;17.93;8.63;;;;;;;11.69;59.02;94411.59;4985308;28;20255;-71
2023/03/07 08:43:17;;;;;;;18.57;8.53;;;;;;;11.50;59.34;94408.94;4967707;28;20287;-70
2023/03/07 08:45:43;;;;;;;19.60;8.40;;;;;;;11.44;58.53;94409.81;4967077;28;20289;-70
2023/03/07 08:48:09;;;;;;;22.20;9.33;;;;;;;11.48;59.67;94408.38;4961381;28;20290;-70
2023/03/07 08:50:34;;;;;;;19.67;9.03;;;;;;;11.60;59.54;94411.06;4982714;28;20227;-71
2023/03/07 08:53:00;;;;;;;19.97;9.20;;;;;;;11.83;59.83;94405.19;4965994;28;20278;-70
2023/03/07 08:55:36;;;;;;;16.73;8.37;;;;;;;11.81;58.01;94409.84;4963682;28;20258;-72
2023/03/07 08:58:01;;;;;;;14.53;7.57;;;;;;;12.03;56.58;94403.13;4963444;28;20235;-71
2023/03/07 09:00:27;;;;;;;16.83;7.80;;;;;;;11.73;55.90;94404.88;4948739;28;20664;-72
2023/03/07 09:02:53;;;;;;;13.93;6.83;;;;;;;11.54;56.17;94406.69;4963974;28;20246;-70
2023/03/07 09:05:19;;;;;;;16.77;7.57;;;;;;;11.72;56.30;94398.88;4982949;28;20239;-72
2023/03/07 09:07:47;;;;;;;17.07;7.30;;;;;;;11.89;56.57;94393.84;4974164;28;21053;-71
2023/03/07 09:10:14;;;;;;;17.67;8.47;;;;;;;11.91;57.70;94403.09;4978673;28;20231;-71
2023/03/07 09:12:39;;;;;;;18.33;8.37;;;;;;;12.06;57.58;94395.63;4964892;28;20236;-71
2023/03/07 09:15:05;;;;;;;21.10;8.00;;;;;;;12.11;56.21;94398.38;4982956;28;20289;-70
2023/03/07 09:17:31;;;;;;;15.97;7.73;;;;;;;12.29;56.55;94404.63;4983841;28;20223;-70
2023/03/07 09:19:56;;;;;;;17.17;7.93;;;;;;;12.27;55.78;94383.06;4982650;28;20239;-71
2023/03/07 09:22:21;;;;;;;18.87;8.50;;;;;;;12.46;55.80;94389.84;4965940;28;20263;-70
2023/03/07 09:24:47;;;;;;;17.20;6.87;;;;;;;12.46;54.94;94388.03;4948380;28;20286;-71
2023/03/07 09:27:12;;;;;;;13.37;6.90;;;;;;;12.52;53.18;94394.19;4995234;28;20242;-72
2023/03/07 09:29:38;;;;;;;14.17;6.63;;;;;;;12.45;52.88;94388.22;5002149;28;20231;-71
2023/03/07 09:32:04;;;;;;;12.80;6.60;;;;;;;12.41;52.91;94394.97;4984900;28;20832;-72
2023/03/07 09:34:29;;;;;;;11.70;6.33;;;;;;;12.58;52.77;94382.81;4986281;28;20230;-70
2023/03/07 09:36:54;;;;;;;13.77;6.50;;;;;;;12.61;52.10;94374.50;5000465;28;20234;-72
2023/03/07 09:39:20;;;;;;;15.93;6.77;;;;;;;12.70;52.50;94376.56;4966247;28;20243;-71
2023/03/07 09:42:10;;;;;;;13.47;6.60;;;;;;;12.89;52.48;94377.28;4977363;28;20321;-78
2023/03/07 09:45:07;;;;;;;14.23;6.60;;;;;;;13.11;51.26;94373.06;4969157;28;20309;-71
2023/03/07 09:47:57;;;;;;;15.23;6.13;;;;;;;13.06;51.00;94372.19;5003183;28;20362;-70
2023/03/07 09:51:00;;;;;;;12.67;5.40;;;;;;;13.04;49.60;94361.06;5001696;28;20731;-71
2023/03/07 09:53:43;;;;;;;14.47;5.37;;;;;;;13.24;51.13;94361.53;4977762;28;20245;-71
2023/03/07 09:56:14;;;;;;;11.83;5.70;;;;;;;13.16;48.90;94360.06;4982526;28;20759;-71
2023/03/07 09:58:42;;;;;;;10.37;5.80;;;;;;;13.21;48.85;94357.53;4987994;28;20321;-72
2023/03/07 10:01:09;;;;;;;11.47;5.43;;;;;;;13.35;49.74;94353.66;4989378;28;20234;-71
2023/03/07 10:03:50;;;;;;;13.60;5.60;;;;;;;13.52;48.34;94355.59;4982059;28;20245;-70
2023/03/07 10:06:29;;;;;;;13.60;5.80;;;;;;;13.63;47.63;94349.50;5006224;28;20230;-71
2023/03/07 10:08:54;;;;;;;12.40;5.20;;;;;;;13.60;46.96;94342.06;4988873;28;20234;-71
2023/03/07 10:11:47;;;;;;;10.83;5.10;;;;;;;13.67;47.61;94335.66;5004132;28;20231;-71
2023/03/07 10:14:21;;;;;;;10.33;5.10;;;;;;;13.66;46.53;94330.66;5004943;28;20795;-71
2023/03/07 10:16:53;;;;;;;11.70;5.03;;;;;;;13.61;48.02;94336.59;5021469;28;20233;-71
2023/03/07 10:19:54;;;;;;;13.60;5.77;;;;;;;13.52;47.04;94328.25;5004693;28;20253;-70
2023/03/07 10:22:41;;;;;;;10.97;5.27;;;;;;;13.76;47.12;94317.69;4949701;28;20235;-72
2023/03/07 10:25:39;;;;;;;11.33;5.30;;;;;;;13.91;47.05;94323.25;5017093;28;20238;-70
2023/03/07 10:28:25;;;;;;;14.20;5.27;;;;;;;14.04;46.01;94315.09;4974973;28;20236;-71
2023/03/07 10:30:51;;;;;;;13.10;5.10;;;;;;;14.09;45.73;94318.59;4949438;28;20281;-71
2023/03/07 10:33:17;;;;;;;10.73;5.27;;;;;;;14.15;45.52;94306.31;4943749;28;20227;-72
2023/03/07 10:35:43;;;;;;;10.43;4.87;;;;;;;14.33;45.61;94300.09;4964140;28;20254;-70
2023/03/07 10:38:22;;;;;;;9.80;5.00;;;;;;;14.42;44.80;94307.38;4969134;28;20586;-69
2023/03/07 10:41:01;;;;;;;10.63;4.80;;;;;;;14.58;45.09;94301.31;4984858;28;20235;-70
2023/03/07 10:43:29;;;;;;;10.97;4.67;;;;;;;14.48;43.78;94298.50;4984567;28;20719;-71
2023/03/07 10:46:25;;;;;;;12.73;4.90;;;;;;;14.61;45.06;94290.31;4968442;28;20665;-71
2023/03/07 10:49:05;;;;;;;11.60;4.80;;;;;;;14.55;43.65;94280.72;4983874;28;20621;-70
2023/03/07 10:51:40;;;;;;;8.50;4.50;;;;;;;14.79;44.32;94287.41;4981480;28;20624;-72
2023/03/07 10:54:19;;;;;;;8.63;4.70;;;;;;;15.13;43.45;94276.81;4997951;28;20268;-70
2023/03/07 10:57:07;;;;;;;9.53;4.20;;;;;;;15.24;42.87;94276.72;4965647;28;20239;-71
2023/03/07 10:59:33;;;;;;;8.03;3.97;;;;;;;15.62;41.64;94269.84;4983423;28;20321;-70
2023/03/07 11:02:00;;;;;;;9.10;4.00;;;;;;;15.18;40.64;94261.09;4962481;28;20322;-70
2023/03/07 11:04:29;;;;;;;8.47;3.80;;;;;;;15.24;41.15;94250.34;4969070;28;20262;-71
2023/03/07 11:06:58;;;;;;;10.10;3.97;;;;;;;15.20;40.83;94245.81;4969170;28;20238;-70
2023/03/07 11:09:34;;;;;;;10.57;3.63;;;;;;;15.40;41.35;94251.34;4942307;28;20263;-70
2023/03/07 11:12:05;;;;;;;7.23;3.50;;;;;;;15.71;40.24;94242.78;4979249;28;20258;-70
2023/03/07 11:14:46;;;;;;;8.83;3.67;;;;;;;15.95;39.58;94222.97;5000085;28;20911;-69
2023/03/07 11:17:22;;;;;;;9.80;4.00;;;;;;;16.10;39.87;94231.03;4967249;28;20266;-69
2023/03/07 11:19:51;;;;;;;6.97;3.67;;;;;;;16.00;39.12;94230.16;4983720;28;20739;-70
2023/03/07 11:22:22;;;;;;;7.67;3.53;;;;;;;16.05;39.37;94224.91;4982803;28;20244;-70
2023/03/07 11:24:52;;;;;;;6.57;3.43;;;;;;;16.22;39.44;94219.50;4946900;28;20980;-70
2023/03/07 11:27:30;;;;;;;7.47;3.60;;;;;;;16.21;38.32;94208.16;4976700;28;20294;-69
2023/03/07 11:30:06;;;;;;;3.17;2.37;;;;;;;16.44;36.53;94202.53;4962671;28;20914;-70